createdAt,value
2022-10-14T00:02:23.127Z,15.60
2022-10-14T00:04:49.961Z,15.45
2022-10-14T00:07:16.593Z,15.07
2022-10-14T00:09:43.320Z,15.60
2022-10-14T00:12:13.644Z,14.23
2022-10-14T00:14:40.366Z,21.55
2022-10-14T00:17:07.002Z,19.38
2022-10-14T00:19:33.656Z,19.90
2022-10-14T00:22:00.234Z,17.25
2022-10-14T00:24:26.890Z,20.38
2022-10-14T00:26:53.504Z,20.15
2022-10-14T00:29:20.282Z,17.90
2022-10-14T00:31:47.465Z,15.80
2022-10-14T00:34:16.039Z,14.60
2022-10-14T00:36:43.336Z,15.98
2022-10-14T00:39:15.012Z,16.58
2022-10-14T00:41:41.925Z,15.50
2022-10-14T00:44:14.320Z,17.27
2022-10-14T00:46:43.318Z,16.88
2022-10-14T00:49:18.632Z,19.42
2022-10-14T00:51:50.125Z,17.00
2022-10-14T00:54:24.130Z,18.50
2022-10-14T00:56:52.580Z,19.58
2022-10-14T00:59:19.511Z,18.38
2022-10-14T01:01:46.268Z,15.68
2022-10-14T01:04:12.990Z,19.83
2022-10-14T01:06:48.532Z,17.88
2022-10-14T01:09:18.187Z,16.42
2022-10-14T01:12:28.148Z,16.95
2022-10-14T01:15:10.921Z,20.55
2022-10-14T01:18:02.335Z,20.15
2022-10-14T01:21:10.051Z,16.88
2022-10-14T01:24:05.444Z,18.65
2022-10-14T01:26:53.302Z,15.23
2022-10-14T01:29:41.050Z,17.52
2022-10-14T01:32:15.943Z,19.25
2022-10-14T01:34:52.298Z,19.25
2022-10-14T01:37:25.067Z,18.45
2022-10-14T01:40:06.886Z,16.75
2022-10-14T01:42:38.329Z,19.92
2022-10-14T01:45:18.787Z,21.13
2022-10-14T01:47:49.243Z,19.13
2022-10-14T01:50:19.007Z,17.70
2022-10-14T01:52:55.744Z,19.60
2022-10-14T01:55:27.207Z,18.25
2022-10-14T01:57:56.939Z,18.27
2022-10-14T02:00:24.697Z,17.63
2022-10-14T02:02:51.340Z,20.45
2022-10-14T02:05:38.743Z,21.58
2022-10-14T02:08:13.078Z,18.58
2022-10-14T02:11:05.422Z,22.52
2022-10-14T02:13:57.583Z,19.05
2022-10-14T02:16:29.097Z,15.90
2022-10-14T02:19:05.509Z,17.85
2022-10-14T02:22:01.668Z,20.40
2022-10-14T02:24:41.621Z,18.50
2022-10-14T02:27:15.434Z,20.95
2022-10-14T02:29:45.561Z,19.20
2022-10-14T02:32:16.287Z,19.40
2022-10-14T02:34:47.274Z,22.05
2022-10-14T02:37:15.752Z,20.08
2022-10-14T02:39:48.714Z,20.42
2022-10-14T02:42:15.516Z,22.42
2022-10-14T02:44:53.907Z,22.20
2022-10-14T02:47:21.661Z,22.73
2022-10-14T02:49:49.519Z,22.48
2022-10-14T02:52:16.367Z,21.65
2022-10-14T02:54:43.242Z,21.27
2022-10-14T02:57:10.250Z,24.30
2022-10-14T02:59:36.855Z,24.02
2022-10-14T03:02:04.533Z,21.30
2022-10-14T03:04:31.304Z,22.55
2022-10-14T03:06:58.018Z,24.85
2022-10-14T03:09:25.524Z,25.23
2022-10-14T03:11:52.216Z,24.77
2022-10-14T03:14:20.561Z,21.77
2022-10-14T03:16:48.100Z,23.33
2022-10-14T03:19:20.901Z,20.67
2022-10-14T03:21:50.026Z,23.45
2022-10-14T03:24:19.717Z,22.25
2022-10-14T03:26:50.957Z,24.08
2022-10-14T03:29:23.787Z,24.40
2022-10-14T03:31:56.503Z,21.17
2022-10-14T03:34:43.374Z,25.02
2022-10-14T03:37:15.276Z,23.20
2022-10-14T03:39:48.939Z,22.67
2022-10-14T03:42:16.853Z,23.40
2022-10-14T03:44:47.082Z,20.65
2022-10-14T03:47:21.677Z,21.75
2022-10-14T03:49:48.544Z,24.55
2022-10-14T03:52:22.503Z,24.73
2022-10-14T03:55:00.096Z,28.80
2022-10-14T03:57:27.842Z,24.73
2022-10-14T03:59:56.894Z,28.77
2022-10-14T04:02:29.490Z,24.88
2022-10-14T04:05:00.849Z,24.35
2022-10-14T04:07:28.005Z,25.58
2022-10-14T04:09:57.292Z,24.75
2022-10-14T04:12:24.457Z,22.85
2022-10-14T04:15:08.264Z,24.73
2022-10-14T04:17:48.279Z,22.45
2022-10-14T04:20:17.215Z,23.08
2022-10-14T04:22:44.080Z,25.30
2022-10-14T04:25:13.564Z,27.08
2022-10-14T04:27:40.415Z,22.23
2022-10-14T04:30:10.317Z,22.98
2022-10-14T04:32:46.761Z,27.08
2022-10-14T04:35:13.479Z,23.30
2022-10-14T04:37:44.245Z,26.83
2022-10-14T04:40:20.420Z,26.15
2022-10-14T04:42:47.479Z,25.23
2022-10-14T04:45:25.257Z,23.98
2022-10-14T04:47:58.978Z,22.83
2022-10-14T04:50:26.438Z,24.30
2022-10-14T04:53:13.700Z,23.92
2022-10-14T04:55:52.785Z,26.33
2022-10-14T04:58:19.995Z,29.27
2022-10-14T05:00:48.028Z,24.42
2022-10-14T05:03:32.128Z,27.17
2022-10-14T05:05:59.581Z,24.08
2022-10-14T05:08:26.828Z,28.50
2022-10-14T05:10:56.175Z,26.52
2022-10-14T05:13:41.278Z,24.05
2022-10-14T05:16:09.021Z,27.20
2022-10-14T05:18:35.862Z,25.33
2022-10-14T05:21:07.512Z,28.33
2022-10-14T05:23:49.321Z,30.08
2022-10-14T05:26:16.277Z,26.05
2022-10-14T05:28:43.192Z,30.70
2022-10-14T05:31:10.720Z,24.55
2022-10-14T05:33:45.329Z,26.65
2022-10-14T05:36:12.405Z,25.92
2022-10-14T05:38:39.307Z,28.27
2022-10-14T05:41:06.021Z,26.25
2022-10-14T05:43:33.246Z,26.80
2022-10-14T05:46:02.379Z,26.33
2022-10-14T05:48:33.810Z,30.75
2022-10-14T05:51:02.389Z,28.48
2022-10-14T05:53:32.414Z,33.95
2022-10-14T05:56:07.804Z,29.35
2022-10-14T05:58:37.050Z,28.95
2022-10-14T06:01:12.432Z,30.38
2022-10-14T06:03:41.777Z,27.35
2022-10-14T06:06:15.314Z,33.75
2022-10-14T06:08:42.817Z,35.53
2022-10-14T06:11:09.578Z,32.25
2022-10-14T06:13:36.248Z,36.20
2022-10-14T06:16:08.032Z,32.85
2022-10-14T06:18:36.125Z,34.58
2022-10-14T06:21:03.444Z,37.35
2022-10-14T06:23:30.275Z,43.17
2022-10-14T06:25:57.084Z,36.65
2022-10-14T06:28:23.827Z,60.90
2022-10-14T06:30:54.576Z,37.03
2022-10-14T06:33:22.625Z,38.20
2022-10-14T06:35:49.298Z,40.58
2022-10-14T06:38:15.942Z,37.95
2022-10-14T06:40:42.575Z,36.83
2022-10-14T06:43:09.224Z,39.47
2022-10-14T06:45:35.891Z,34.15
2022-10-14T06:48:04.391Z,31.65
2022-10-14T06:50:31.020Z,30.05
2022-10-14T06:52:57.641Z,28.98
2022-10-14T06:55:24.293Z,27.27
2022-10-14T06:57:50.979Z,28.63
2022-10-14T07:00:18.043Z,29.75
2022-10-14T07:02:45.027Z,29.02
2022-10-14T07:05:12.008Z,26.63
2022-10-14T07:07:38.926Z,25.38
2022-10-14T07:10:06.003Z,29.23
2022-10-14T07:12:32.648Z,34.47
2022-10-14T07:14:59.309Z,27.30
2022-10-14T07:17:25.898Z,27.38
2022-10-14T07:19:52.519Z,29.38
2022-10-14T07:22:19.327Z,28.10
2022-10-14T07:24:46.111Z,28.13
2022-10-14T07:27:15.834Z,26.42
2022-10-14T07:29:43.072Z,24.00
2022-10-14T07:32:09.650Z,25.38
2022-10-14T07:34:36.427Z,26.10
2022-10-14T07:37:03.768Z,28.70
2022-10-14T07:39:30.485Z,22.70
2022-10-14T07:41:57.084Z,24.02
2022-10-14T07:44:27.256Z,23.85
2022-10-14T07:46:54.454Z,24.40
2022-10-14T07:49:23.662Z,26.55
2022-10-14T07:51:50.517Z,25.55
2022-10-14T07:54:20.583Z,24.60
2022-10-14T07:56:50.775Z,25.85
2022-10-14T07:59:19.834Z,22.05
2022-10-14T08:01:47.460Z,22.63
2022-10-14T08:04:14.204Z,24.23
2022-10-14T08:06:40.900Z,20.65
2022-10-14T08:09:10.922Z,23.30
2022-10-14T08:11:37.744Z,19.48
2022-10-14T08:14:04.655Z,21.02
2022-10-14T08:16:34.606Z,24.00
2022-10-14T08:19:05.560Z,18.77
2022-10-14T08:21:34.528Z,23.70
2022-10-14T08:24:01.239Z,18.00
2022-10-14T08:26:31.818Z,20.20
2022-10-14T08:29:06.658Z,18.10
2022-10-14T08:31:33.555Z,16.50
2022-10-14T08:34:00.261Z,18.13
2022-10-14T08:36:27.182Z,16.27
2022-10-14T08:38:54.656Z,18.58
2022-10-14T08:41:24.260Z,15.45
2022-10-14T08:44:12.542Z,16.65
2022-10-14T08:46:52.183Z,14.82
2022-10-14T08:49:22.400Z,13.48
2022-10-14T08:52:15.017Z,10.35
2022-10-14T08:54:49.429Z,10.68
2022-10-14T08:57:22.514Z,8.63
2022-10-14T08:59:49.254Z,8.65
2022-10-14T09:02:28.111Z,8.52
2022-10-14T09:04:55.107Z,8.63
2022-10-14T09:07:21.917Z,7.88
2022-10-14T09:10:11.453Z,7.03
2022-10-14T09:12:40.134Z,6.97
2022-10-14T09:15:15.974Z,7.43
2022-10-14T09:18:19.716Z,6.60
2022-10-14T09:20:47.277Z,7.03
2022-10-14T09:23:19.913Z,9.63
2022-10-14T09:26:05.223Z,8.43
2022-10-14T09:28:38.471Z,7.75
2022-10-14T09:31:08.105Z,7.15
2022-10-14T09:33:42.081Z,7.22
2022-10-14T09:36:20.798Z,8.50
2022-10-14T09:38:52.867Z,7.93
2022-10-14T09:41:30.188Z,7.30
2022-10-14T09:44:22.141Z,8.27
2022-10-14T09:47:13.092Z,6.07
2022-10-14T09:49:46.870Z,5.85
2022-10-14T09:52:24.940Z,6.38
2022-10-14T09:54:55.129Z,4.70
2022-10-14T09:57:22.136Z,4.90
2022-10-14T10:00:00.545Z,3.95
2022-10-14T10:02:40.951Z,3.55
2022-10-14T10:05:35.308Z,3.63
2022-10-14T10:08:04.590Z,4.78
2022-10-14T10:10:32.064Z,3.67
2022-10-14T10:12:58.963Z,4.05
2022-10-14T10:15:26.017Z,3.75
2022-10-14T10:17:53.382Z,4.93
2022-10-14T10:20:20.122Z,4.55
2022-10-14T10:22:46.885Z,4.13
2022-10-14T10:25:13.822Z,4.85
2022-10-14T10:27:42.960Z,6.80
2022-10-14T10:30:21.315Z,5.25
2022-10-14T10:33:29.179Z,4.35
2022-10-14T10:36:08.313Z,4.78
2022-10-14T10:38:45.301Z,6.78
2022-10-14T10:41:25.042Z,4.30
2022-10-14T10:43:57.650Z,3.90
2022-10-14T10:46:52.096Z,4.63
2022-10-14T10:49:44.657Z,3.65
2022-10-14T10:52:47.027Z,3.60
2022-10-14T10:55:18.295Z,3.72
2022-10-14T10:57:50.627Z,4.10
2022-10-14T11:00:21.134Z,3.58
2022-10-14T11:02:55.918Z,3.70
2022-10-14T11:05:25.419Z,3.25
2022-10-14T11:08:49.454Z,3.63
2022-10-14T11:11:41.743Z,3.33
2022-10-14T11:14:26.906Z,4.93
2022-10-14T11:17:12.002Z,2.70
2022-10-14T11:20:05.347Z,4.57
2022-10-14T11:22:59.971Z,3.28
2022-10-14T11:25:36.204Z,2.38
2022-10-14T11:28:41.840Z,2.88
2022-10-14T11:31:27.514Z,2.78
2022-10-14T11:34:15.825Z,3.20
2022-10-14T11:37:04.007Z,3.58
2022-10-14T11:39:45.518Z,3.75
2022-10-14T11:42:34.037Z,2.70
2022-10-14T11:45:49.672Z,3.60
2022-10-14T11:48:34.394Z,3.25
2022-10-14T11:51:36.861Z,3.03
2022-10-14T11:54:03.924Z,3.33
2022-10-14T11:56:39.355Z,2.97
2022-10-14T11:59:36.833Z,5.55
2022-10-14T12:02:18.499Z,3.38
2022-10-14T12:04:52.553Z,8.40
2022-10-14T12:07:24.997Z,4.28
2022-10-14T12:10:01.892Z,3.72
2022-10-14T12:12:30.707Z,6.22
2022-10-14T12:15:06.244Z,3.20
2022-10-14T12:17:42.902Z,3.80
2022-10-14T12:20:34.407Z,3.45
2022-10-14T12:23:03.356Z,3.00
2022-10-14T12:25:38.139Z,3.15
2022-10-14T12:28:05.458Z,6.10
2022-10-14T12:30:36.740Z,3.28
2022-10-14T12:33:17.706Z,3.55
2022-10-14T12:36:00.835Z,4.07
2022-10-14T12:38:29.718Z,4.10
2022-10-14T12:41:36.042Z,3.60
2022-10-14T12:44:05.057Z,3.35
2022-10-14T12:46:31.729Z,3.33
2022-10-14T12:49:00.303Z,2.88
2022-10-14T12:51:27.322Z,4.78
2022-10-14T12:53:57.919Z,7.32
2022-10-14T12:56:42.118Z,3.40
2022-10-14T12:59:22.497Z,2.50
2022-10-14T13:01:55.894Z,2.38
2022-10-14T13:04:22.793Z,3.60
2022-10-14T13:07:43.282Z,2.70
2022-10-14T13:10:56.309Z,2.53
2022-10-14T13:13:52.356Z,2.13
2022-10-14T13:16:25.240Z,4.18
2022-10-14T13:18:57.729Z,3.45
2022-10-14T13:21:36.208Z,2.97
2022-10-14T13:24:07.397Z,1.52
2022-10-14T13:26:44.047Z,2.17
2022-10-14T13:29:19.896Z,2.17
2022-10-14T13:32:05.052Z,1.63
2022-10-14T13:34:43.987Z,3.10
2022-10-14T13:37:36.554Z,2.72
2022-10-14T13:40:39.189Z,1.77
2022-10-14T13:43:19.514Z,2.80
2022-10-14T13:46:02.514Z,2.45
2022-10-14T13:48:43.751Z,2.10
2022-10-14T13:51:24.713Z,3.10
2022-10-14T13:54:32.684Z,5.85
2022-10-14T14:02:39.860Z,2.45
2022-10-14T14:05:14.180Z,2.72
2022-10-14T14:10:30.373Z,3.90
2022-10-14T14:12:58.317Z,1.60
2022-10-14T14:15:28.941Z,4.30
2022-10-14T14:17:55.693Z,1.73
2022-10-14T14:20:26.227Z,2.95
2022-10-14T14:22:53.528Z,2.03
2022-10-14T14:25:33.996Z,3.92
2022-10-14T14:28:02.891Z,2.92
2022-10-14T14:30:38.779Z,3.55
2022-10-14T14:33:10.820Z,4.00
2022-10-14T14:35:37.607Z,1.90
2022-10-14T14:38:04.471Z,3.15
2022-10-14T14:40:31.770Z,3.10
2022-10-14T14:43:00.677Z,4.57
2022-10-14T14:45:43.182Z,3.90
2022-10-14T14:48:12.150Z,3.58
2022-10-14T14:50:43.267Z,4.10
2022-10-14T14:53:13.827Z,11.00
2022-10-14T14:55:46.093Z,6.22
2022-10-14T14:58:47.160Z,10.02
2022-10-14T15:01:23.882Z,5.95
2022-10-14T15:04:14.698Z,4.78
2022-10-14T15:06:51.368Z,2.95
2022-10-14T15:09:24.927Z,3.88
2022-10-14T15:11:57.621Z,6.03
2022-10-14T15:15:16.941Z,3.03
2022-10-14T15:17:47.512Z,3.75
2022-10-14T15:20:29.838Z,3.97
2022-10-14T15:22:56.533Z,5.05
2022-10-14T15:25:30.693Z,4.78
2022-10-14T15:28:01.852Z,3.00
2022-10-14T15:30:40.680Z,3.40
2022-10-14T15:33:24.773Z,3.33
2022-10-14T15:36:01.592Z,3.85
2022-10-14T15:40:56.270Z,7.82
2022-10-14T15:43:24.902Z,11.45
2022-10-14T15:46:15.576Z,11.63
2022-10-14T15:48:54.724Z,20.95
2022-10-14T15:51:26.112Z,12.30
2022-10-14T15:53:52.815Z,7.20
2022-10-14T15:56:20.876Z,6.10
2022-10-14T15:58:47.883Z,5.28
2022-10-14T16:01:22.825Z,4.70
2022-10-14T16:03:52.171Z,7.85
2022-10-14T16:06:22.289Z,4.75
2022-10-14T16:08:49.025Z,8.75
2022-10-14T16:11:29.843Z,4.80
2022-10-14T16:13:56.695Z,7.72
2022-10-14T16:16:37.027Z,5.45
2022-10-14T16:19:04.730Z,7.43
2022-10-14T16:21:31.852Z,6.05
2022-10-14T16:23:59.032Z,3.47
2022-10-14T16:26:26.176Z,5.30
2022-10-14T16:28:53.069Z,4.72
2022-10-14T16:31:21.222Z,3.95
2022-10-14T16:33:56.053Z,3.83
2022-10-14T16:36:25.950Z,3.45
2022-10-14T16:38:53.062Z,3.50
2022-10-14T16:41:19.793Z,3.90
2022-10-14T16:43:47.486Z,4.00
2022-10-14T16:46:16.044Z,4.78
2022-10-14T16:48:42.987Z,4.20
2022-10-14T16:51:09.837Z,3.45
2022-10-14T16:53:43.775Z,4.40
2022-10-14T16:56:37.829Z,5.72
2022-10-14T16:59:05.355Z,5.63
2022-10-14T17:01:32.165Z,5.45
2022-10-14T17:03:58.893Z,5.22
2022-10-14T17:06:26.471Z,6.07
2022-10-14T17:08:53.683Z,5.07
2022-10-14T17:11:20.629Z,6.10
2022-10-14T17:13:50.337Z,5.68
2022-10-14T17:16:16.983Z,6.22
2022-10-14T17:18:43.623Z,7.55
2022-10-14T17:21:13.589Z,10.60
2022-10-14T17:23:42.208Z,11.57
2022-10-14T17:26:11.929Z,7.80
2022-10-14T17:28:40.453Z,9.32
2022-10-14T17:31:10.041Z,9.35
2022-10-14T17:33:37.541Z,8.30
2022-10-14T17:36:06.329Z,8.40
2022-10-14T17:38:34.843Z,7.32
2022-10-14T17:41:03.323Z,7.32
2022-10-14T17:43:31.117Z,8.48
2022-10-14T17:48:42.679Z,6.65
2022-10-14T17:51:13.426Z,6.22
2022-10-14T17:53:40.349Z,6.80
2022-10-14T17:56:09.575Z,7.63
2022-10-14T17:58:36.227Z,8.55
2022-10-14T18:01:11.403Z,11.77
2022-10-14T18:03:41.948Z,11.25
2022-10-14T18:06:18.894Z,11.20
2022-10-14T18:08:49.422Z,9.60
2022-10-14T18:11:17.083Z,8.98
2022-10-14T18:13:43.744Z,8.73
2022-10-14T18:16:13.231Z,7.93
2022-10-14T18:18:41.523Z,8.10
2022-10-14T18:21:10.082Z,7.75
2022-10-14T18:23:39.103Z,6.80
2022-10-14T18:26:13.411Z,8.18
2022-10-14T18:28:47.640Z,5.70
2022-10-14T18:31:17.349Z,4.60
2022-10-14T18:33:44.867Z,6.05
2022-10-14T18:36:13.518Z,5.47
2022-10-14T18:38:40.868Z,5.90
2022-10-14T18:41:11.708Z,4.47
2022-10-14T18:43:38.664Z,4.57
2022-10-14T18:46:09.515Z,7.05
2022-10-14T18:48:37.141Z,5.28
2022-10-14T18:51:05.286Z,8.30
2022-10-14T18:53:33.098Z,6.05
2022-10-14T18:56:08.335Z,7.70
2022-10-14T18:58:39.371Z,6.00
2022-10-14T19:01:06.409Z,6.28
2022-10-14T19:03:34.982Z,6.65
2022-10-14T19:06:02.101Z,7.47
2022-10-14T19:08:28.723Z,11.02
2022-10-14T19:11:20.108Z,7.93
2022-10-14T19:13:48.785Z,8.57
2022-10-14T19:16:22.360Z,8.85
2022-10-14T19:18:54.286Z,8.35
2022-10-14T19:21:22.525Z,9.80
2022-10-14T19:23:50.234Z,10.45
2022-10-14T19:26:21.881Z,11.77
2022-10-14T19:28:49.763Z,9.70
2022-10-14T19:31:20.088Z,12.10
2022-10-14T19:33:47.405Z,10.02
2022-10-14T19:36:16.325Z,11.20
2022-10-14T19:38:50.953Z,12.27
2022-10-14T19:41:18.419Z,12.80
2022-10-14T19:43:45.100Z,11.60
2022-10-14T19:46:13.586Z,11.98
2022-10-14T19:48:40.694Z,13.30
2022-10-14T19:51:11.623Z,10.10
2022-10-14T19:53:38.786Z,12.77
2022-10-14T19:56:10.708Z,13.32
2022-10-14T19:58:40.979Z,12.70
2022-10-14T20:01:20.943Z,11.60
2022-10-14T20:03:47.670Z,11.95
2022-10-14T20:06:14.665Z,12.80
2022-10-14T20:08:42.799Z,16.58
2022-10-14T20:11:14.211Z,14.63
2022-10-14T20:13:40.896Z,13.73
2022-10-14T20:16:09.720Z,15.07
2022-10-14T20:18:37.134Z,13.15
2022-10-14T20:21:05.986Z,15.75
2022-10-14T20:23:34.357Z,16.67
2022-10-14T20:26:07.172Z,14.57
2022-10-14T20:28:38.142Z,13.25
2022-10-14T20:31:13.496Z,14.90
2022-10-14T20:33:40.458Z,16.10
2022-10-14T20:36:13.343Z,17.10
2022-10-14T20:38:41.268Z,16.75
2022-10-14T20:41:13.755Z,14.98
2022-10-14T20:43:41.431Z,18.67
2022-10-14T20:46:08.093Z,16.90
2022-10-14T20:48:34.772Z,16.10
2022-10-14T20:51:08.350Z,15.60
2022-10-14T20:53:35.103Z,15.48
2022-10-14T20:56:10.908Z,15.98
2022-10-14T20:58:37.835Z,17.52
2022-10-14T21:01:17.673Z,15.00
2022-10-14T21:03:45.763Z,15.88
2022-10-14T21:06:15.631Z,16.58
2022-10-14T21:08:42.663Z,18.27
2022-10-14T21:11:14.972Z,15.38
2022-10-14T21:13:45.153Z,17.30
2022-10-14T21:16:16.177Z,14.98
2022-10-14T21:18:55.204Z,15.73
2022-10-14T21:21:26.211Z,17.13
2022-10-14T21:23:52.896Z,17.70
2022-10-14T21:26:19.706Z,16.63
2022-10-14T21:28:46.594Z,19.35
2022-10-14T21:31:17.406Z,17.58
2022-10-14T21:33:46.931Z,18.58
2022-10-14T21:36:16.019Z,16.50
2022-10-14T21:38:42.792Z,16.70
2022-10-14T21:41:09.513Z,17.85
2022-10-14T21:43:37.501Z,18.05
2022-10-14T21:46:12.299Z,19.02
2022-10-14T21:48:39.180Z,19.13
2022-10-14T21:51:08.639Z,19.83
2022-10-14T21:53:35.269Z,19.15
2022-10-14T21:56:02.039Z,19.77
2022-10-14T21:58:29.824Z,19.70
2022-10-14T22:01:09.293Z,21.08
2022-10-14T22:03:37.312Z,18.02
2022-10-14T22:06:06.910Z,16.08
2022-10-14T22:08:36.927Z,16.67
2022-10-14T22:11:04.701Z,17.08
2022-10-14T22:13:32.431Z,18.80
2022-10-14T22:15:59.351Z,21.33
2022-10-14T22:18:27.619Z,18.38
2022-10-14T22:21:04.888Z,19.52
2022-10-14T22:23:33.124Z,22.05
2022-10-14T22:26:04.649Z,17.80
2022-10-14T22:28:31.916Z,21.17
2022-10-14T22:31:19.426Z,18.30
2022-10-14T22:33:46.378Z,17.05
2022-10-14T22:36:19.367Z,16.60
2022-10-14T22:38:49.782Z,18.10
2022-10-14T22:41:18.037Z,19.52
2022-10-14T22:43:52.819Z,20.42
2022-10-14T22:46:21.196Z,19.30
2022-10-14T22:48:56.050Z,19.45
2022-10-14T22:51:34.771Z,18.13
2022-10-14T22:54:02.206Z,17.13
2022-10-14T22:56:30.468Z,18.67
2022-10-14T22:58:59.717Z,19.85
2022-10-14T23:01:29.721Z,19.63
2022-10-14T23:03:57.416Z,18.02
2022-10-14T23:06:24.177Z,19.13
2022-10-14T23:08:50.922Z,18.42
2022-10-14T23:11:19.585Z,22.58
2022-10-14T23:13:46.864Z,21.15
2022-10-14T23:16:19.695Z,19.83
2022-10-14T23:18:46.834Z,18.33
2022-10-14T23:21:19.253Z,21.63
2022-10-14T23:23:47.051Z,17.42
2022-10-14T23:26:16.403Z,23.13
2022-10-14T23:28:47.180Z,21.70
2022-10-14T23:31:16.333Z,19.33
2022-10-14T23:33:43.601Z,18.23
2022-10-14T23:36:12.358Z,20.10
2022-10-14T23:38:40.009Z,19.92
2022-10-14T23:41:08.181Z,20.00
2022-10-14T23:43:35.071Z,19.10
2022-10-14T23:46:02.266Z,20.00
2022-10-14T23:48:29.281Z,21.38
2022-10-14T23:50:56.315Z,21.17
2022-10-14T23:53:23.540Z,22.02
2022-10-14T23:55:50.174Z,26.50
2022-10-14T23:58:16.846Z,21.50
